Time;durP1;ratioP1;P1;durP2;ratioP2;P2;SDS_P1;SDS_P2;PMS_P1;PMS_P2;Temp;Humidity;BMP_temperature;BMP_pressure;BME280_temperature;BME280_humidity;BME280_pressure;Samples;Min_cycle;Max_cycle;Signal;HPM_P1;HPM_P2
2022/05/31 00:02:03;;;;;;;6.43;5.03;;;;;;;-143.84;68.24;45039.53;5109985;28;20439;-71
2022/05/31 00:04:31;;;;;;;9.90;5.17;;;;;;;-143.84;68.42;45039.53;5109894;28;21013;-71
2022/05/31 00:06:58;;;;;;;7.77;5.20;;;;;;;-143.84;67.97;45054.78;5109886;28;20442;-71
2022/05/31 00:09:26;;;;;;;7.33;5.23;;;;;;;-143.84;68.31;45010.97;5109894;28;20470;-71
2022/05/31 00:11:54;;;;;;;6.80;6.20;;;;;;;-143.84;68.24;45043.34;5109811;28;20435;-73
2022/05/31 00:14:21;;;;;;;8.03;5.53;;;;;;;-143.84;68.55;45010.97;5109709;28;20439;-74
2022/05/31 00:16:48;;;;;;;7.10;6.33;;;;;;;-143.84;68.50;45018.59;5109340;28;20439;-74
2022/05/31 00:19:18;;;;;;;6.37;5.80;;;;;;;-143.84;68.55;45026.22;5109290;28;20447;-73
2022/05/31 00:21:48;;;;;;;8.43;6.27;;;;;;;-143.84;68.96;45039.53;5109443;28;20443;-73
2022/05/31 00:24:18;;;;;;;6.30;5.40;;;;;;;-143.84;68.92;45022.41;5109931;28;20438;-73
2022/05/31 00:26:46;;;;;;;6.97;5.30;;;;;;;-143.84;68.80;45031.94;5108927;28;20436;-73
2022/05/31 00:29:14;;;;;;;6.03;5.53;;;;;;;-143.84;68.80;45033.84;5109356;28;20486;-73
2022/05/31 00:31:44;;;;;;;5.50;5.20;;;;;;;-143.84;68.84;45026.22;5109052;28;20846;-73
2022/05/31 00:34:12;;;;;;;8.70;5.60;;;;;;;-143.84;68.86;45033.84;5108217;28;20495;-74
2022/05/31 00:36:44;;;;;;;5.77;5.27;;;;;;;-143.84;69.14;45045.25;5108867;28;20451;-74
2022/05/31 00:39:11;;;;;;;6.30;5.70;;;;;;;-143.84;68.91;45033.84;5108853;28;20451;-73
2022/05/31 00:41:39;;;;;;;7.50;6.53;;;;;;;-143.84;68.97;45045.25;5108617;28;20998;-74
2022/05/31 00:44:08;;;;;;;8.40;5.60;;;;;;;-143.84;69.34;45018.59;5108500;28;20443;-73
2022/05/31 00:46:45;;;;;;;6.37;5.47;;;;;;;-143.84;69.41;45018.59;5108888;28;21013;-74
2022/05/31 00:49:17;;;;;;;9.27;6.10;;;;;;;-143.84;69.55;45049.06;5105436;28;20475;-74
2022/05/31 00:51:49;;;;;;;6.13;5.63;;;;;;;-143.84;69.63;45041.44;5108341;28;20447;-74
2022/05/31 00:54:19;;;;;;;6.17;5.50;;;;;;;-143.84;69.84;45031.94;5102288;28;20447;-74
2022/05/31 00:56:50;;;;;;;9.70;5.73;;;;;;;-143.84;70.08;45028.13;5103070;28;20443;-74
2022/05/31 00:59:21;;;;;;;7.37;4.90;;;;;;;-143.84;70.17;45030.03;5109098;28;20448;-74
2022/05/31 01:01:51;;;;;;;6.77;6.20;;;;;;;-143.84;70.10;45039.53;5102054;28;20853;-74
2022/05/31 01:04:21;;;;;;;6.03;5.53;;;;;;;-143.84;70.06;45037.66;5093719;28;20510;-74
2022/05/31 01:06:49;;;;;;;6.20;5.60;;;;;;;-143.84;70.16;45037.66;5088698;28;20440;-74
2022/05/31 01:09:16;;;;;;;7.83;5.47;;;;;;;-143.84;70.22;45033.84;5088653;28;20479;-74
2022/05/31 01:11:44;;;;;;;8.93;5.23;;;;;;;-143.84;70.50;45064.31;5088507;28;20446;-74
2022/05/31 01:14:13;;;;;;;6.07;5.33;;;;;;;-143.84;70.73;45026.22;5088971;28;20444;-74
2022/05/31 01:16:54;;;;;;;6.63;6.03;;;;;;;-143.84;70.85;45030.03;5088627;28;20434;-74
2022/05/31 01:22:03;;;;;;;10.27;6.27;;;;;;;-143.84;70.83;45056.69;5087714;28;20448;-74
2022/05/31 01:24:35;;;;;;;7.93;6.23;;;;;;;-143.84;71.14;45050.97;5088738;28;20436;-74
2022/05/31 01:27:10;;;;;;;5.70;5.17;;;;;;;-143.84;70.94;45037.66;5088604;28;20797;-74
2022/05/31 01:29:40;;;;;;;5.47;5.03;;;;;;;-143.84;71.16;45037.66;5088796;28;20479;-74
2022/05/31 01:32:10;;;;;;;6.03;5.47;;;;;;;-143.84;71.13;45035.75;5088484;28;20447;-74
2022/05/31 01:34:41;;;;;;;18.83;5.40;;;;;;;-143.84;71.33;45056.69;5088124;28;20555;-74
2022/05/31 01:37:09;;;;;;;14.43;5.70;;;;;;;-143.84;71.40;45047.16;5089031;28;20451;-74
2022/05/31 01:39:40;;;;;;;6.27;5.60;;;;;;;-143.84;71.25;45035.75;5091532;28;20448;-74
2022/05/31 01:42:15;;;;;;;7.93;5.43;;;;;;;-143.84;71.19;45049.06;5091811;28;20813;-74
2022/05/31 01:44:46;;;;;;;5.93;5.40;;;;;;;-143.84;70.71;45041.44;5093248;28;20443;-77
2022/05/31 01:47:14;;;;;;;6.90;6.30;;;;;;;-143.84;70.66;45041.44;5092947;28;20497;-77
2022/05/31 01:49:43;;;;;;;6.37;5.60;;;;;;;-143.84;70.79;45049.06;5092452;28;20475;-77
2022/05/31 01:52:13;;;;;;;6.87;6.33;;;;;;;-143.84;70.27;45026.22;5091453;28;20443;-77
2022/05/31 01:54:43;;;;;;;9.47;6.10;;;;;;;-143.84;70.43;45045.25;5091663;28;20864;-77
2022/05/31 01:57:13;;;;;;;9.53;5.67;;;;;;;-143.84;70.20;45037.66;5092241;28;20434;-78
2022/05/31 01:59:44;;;;;;;8.27;5.70;;;;;;;-143.84;69.95;45039.53;5091980;28;20440;-77
2022/05/31 02:02:15;;;;;;;6.30;5.87;;;;;;;-143.84;70.15;45050.97;5092644;28;20984;-77
2022/05/31 02:04:42;;;;;;;7.00;5.87;;;;;;;-143.84;69.94;45039.53;5092097;28;20439;-77
2022/05/31 02:07:15;;;;;;;9.20;5.23;;;;;;;-143.84;69.96;45054.78;5091204;28;20443;-77
2022/05/31 02:09:45;;;;;;;7.30;5.57;;;;;;;-143.84;69.78;45039.53;5091741;28;20525;-77
2022/05/31 02:12:13;;;;;;;10.90;5.40;;;;;;;-143.84;69.77;45033.84;5092641;28;20440;-77
2022/05/31 02:14:42;;;;;;;7.67;6.43;;;;;;;-143.84;70.00;45018.59;5092427;28;20926;-77
2022/05/31 02:17:10;;;;;;;6.57;6.00;;;;;;;-143.84;69.90;45049.06;5093005;28;20498;-77
2022/05/31 02:19:38;;;;;;;6.20;5.70;;;;;;;-143.84;69.86;45031.94;5092782;28;20436;-77
2022/05/31 02:22:07;;;;;;;8.97;6.03;;;;;;;-143.84;70.12;45043.34;5092611;28;20447;-78
2022/05/31 02:24:35;;;;;;;6.47;5.97;;;;;;;-143.84;69.93;45033.84;5093802;28;20432;-78
2022/05/31 02:27:04;;;;;;;6.23;5.63;;;;;;;-143.84;70.23;45024.31;5093386;28;20445;-78
2022/05/31 02:29:34;;;;;;;6.23;5.70;;;;;;;-143.84;70.39;45005.28;5093212;28;20905;-77
2022/05/31 02:32:02;;;;;;;9.50;5.60;;;;;;;-143.84;69.87;45047.16;5092554;28;20990;-77
2022/05/31 02:34:32;;;;;;;6.83;6.13;;;;;;;-143.84;69.43;45039.53;5092326;28;20544;-77
2022/05/31 02:37:00;;;;;;;8.80;6.03;;;;;;;-143.84;69.57;45024.31;5092829;28;20439;-77
2022/05/31 02:39:27;;;;;;;5.60;5.10;;;;;;;-143.84;69.68;45045.25;5092644;28;20523;-77
2022/05/31 02:41:55;;;;;;;8.53;5.60;;;;;;;-143.84;70.08;45033.84;5092504;28;20451;-77
2022/05/31 02:44:24;;;;;;;6.60;6.03;;;;;;;-143.84;70.45;45022.41;5092751;28;20924;-77
2022/05/31 02:46:51;;;;;;;16.50;7.00;;;;;;;-143.84;70.56;45045.25;5092595;28;20511;-77
2022/05/31 02:49:19;;;;;;;6.80;6.10;;;;;;;-143.84;70.78;45037.66;5091761;28;20509;-77
2022/05/31 02:51:47;;;;;;;8.57;6.37;;;;;;;-143.84;71.05;45039.53;5092454;28;20543;-77
2022/05/31 02:54:18;;;;;;;6.87;6.17;;;;;;;-143.84;71.04;45024.31;5092213;28;20849;-77
2022/05/31 02:56:46;;;;;;;6.60;6.00;;;;;;;-143.84;71.23;45037.66;5092251;28;20444;-77
2022/05/31 02:59:14;;;;;;;7.40;5.27;;;;;;;-143.84;71.15;45070.00;5091992;28;20455;-78
2022/05/31 03:01:44;;;;;;;7.07;6.00;;;;;;;-143.84;71.44;45049.06;5092435;28;20795;-78
2022/05/31 03:04:13;;;;;;;6.47;5.77;;;;;;;-143.84;71.68;45062.41;5092299;28;20444;-76
2022/05/31 03:06:41;;;;;;;6.00;5.53;;;;;;;-143.84;71.53;45047.16;5091489;28;20789;-76
2022/05/31 03:09:08;;;;;;;10.60;6.73;;;;;;;-143.84;71.92;45043.34;5092215;28;20483;-79
2022/05/31 03:11:42;;;;;;;5.77;5.27;;;;;;;-143.84;72.00;45066.22;5091956;28;20436;-77
2022/05/31 03:14:16;;;;;;;6.60;6.00;;;;;;;-143.84;71.91;45047.16;5092445;28;20512;-72
2022/05/31 03:16:49;;;;;;;7.83;6.10;;;;;;;-143.84;72.28;45060.50;5106688;28;20447;-72
2022/05/31 03:19:20;;;;;;;8.30;6.37;;;;;;;-143.84;72.58;45026.22;5110855;28;20947;-72
2022/05/31 03:21:54;;;;;;;8.10;6.27;;;;;;;-143.84;72.50;45028.13;5103069;28;20452;-72
2022/05/31 03:24:25;;;;;;;6.80;6.07;;;;;;;-143.84;72.39;45050.97;5090038;28;20909;-73
2022/05/31 03:26:55;;;;;;;6.60;5.87;;;;;;;-143.84;72.39;45047.16;5090219;28;20432;-74
2022/05/31 03:29:23;;;;;;;8.10;5.80;;;;;;;-143.84;72.43;45052.88;5089806;28;20487;-73
2022/05/31 03:31:52;;;;;;;10.87;6.63;;;;;;;-143.84;71.73;45049.06;5088313;28;20910;-73
2022/05/31 03:34:19;;;;;;;6.13;5.53;;;;;;;-143.84;71.70;45039.53;5088650;28;20548;-72
2022/05/31 03:36:47;;;;;;;7.50;6.73;;;;;;;-143.84;69.98;45020.50;5088860;28;20790;-72
2022/05/31 03:39:14;;;;;;;6.43;5.43;;;;;;;-143.84;66.67;45030.03;5089159;28;20432;-73
2022/05/31 03:41:41;;;;;;;6.97;5.03;;;;;;;-143.84;62.78;45026.22;5089484;28;20452;-73
2022/05/31 03:44:09;;;;;;;6.57;5.10;;;;;;;-143.84;59.23;44995.75;5090417;28;20486;-72
2022/05/31 03:46:36;;;;;;;5.47;4.90;;;;;;;-143.84;56.57;45007.19;5090821;28;20438;-73
2022/05/31 03:49:05;;;;;;;7.20;4.77;;;;;;;-143.84;53.96;44978.63;5089981;28;20475;-73
2022/05/31 03:51:32;;;;;;;5.20;4.70;;;;;;;-143.84;51.71;44974.81;5089433;28;20839;-72
2022/05/31 03:53:59;;;;;;;5.60;4.93;;;;;;;-143.84;49.38;44986.22;5089345;28;20440;-74
2022/05/31 03:56:27;;;;;;;7.33;4.70;;;;;;;-143.84;49.02;44955.75;5089408;28;20578;-71
2022/05/31 03:58:54;;;;;;;4.53;3.67;;;;;;;-143.84;47.86;44955.75;5109376;28;20451;-72
2022/05/31 04:01:21;;;;;;;7.83;4.70;;;;;;;-143.84;47.78;44961.47;5109062;28;20991;-72
2022/05/31 04:03:48;;;;;;;4.70;4.30;;;;;;;-143.84;46.99;44963.38;5109837;28;20454;-72
2022/05/31 04:06:17;;;;;;;9.63;5.30;;;;;;;-143.84;46.91;44942.44;5109805;28;20970;-72
2022/05/31 04:08:44;;;;;;;12.93;4.43;;;;;;;-143.84;46.05;44961.47;5109908;28;20504;-72
2022/05/31 04:11:11;;;;;;;4.57;4.27;;;;;;;-143.84;46.07;44967.19;5110088;28;20431;-72
2022/05/31 04:13:39;;;;;;;4.47;4.03;;;;;;;-143.84;45.78;44965.28;5109923;28;20434;-72
2022/05/31 04:16:08;;;;;;;4.10;3.80;;;;;;;-143.84;45.76;44957.66;5109996;28;20439;-72
2022/05/31 04:18:37;;;;;;;7.23;4.30;;;;;;;-143.84;45.19;44963.38;5109599;28;20442;-72
2022/05/31 04:21:06;;;;;;;3.93;3.53;;;;;;;-143.84;45.21;44913.88;5109888;28;20446;-72
2022/05/31 04:26:20;;;;;;;6.33;4.00;;;;;;;-143.84;45.12;44925.31;5109885;28;20797;-72
2022/05/31 04:28:48;;;;;;;3.77;3.57;;;;;;;-143.84;44.87;44951.97;5109534;28;20466;-72
2022/05/31 04:31:15;;;;;;;4.40;4.00;;;;;;;-143.84;44.97;44946.25;5109668;28;20450;-72
2022/05/31 04:33:42;;;;;;;5.33;3.67;;;;;;;-143.84;45.15;44946.25;5109666;28;20443;-73
2022/05/31 04:36:12;;;;;;;4.80;4.30;;;;;;;-143.84;45.05;44944.34;5109625;28;20443;-72
2022/05/31 04:38:41;;;;;;;5.17;3.93;;;;;;;-143.84;45.24;44931.00;5109688;28;20446;-72
2022/05/31 04:41:15;;;;;;;7.20;4.30;;;;;;;-143.84;44.61;44934.81;5109416;28;20454;-72
2022/05/31 04:43:42;;;;;;;6.63;4.13;;;;;;;-143.84;44.80;44915.78;5109476;28;20430;-72
2022/05/31 04:46:11;;;;;;;6.33;4.60;;;;;;;-143.84;44.67;44942.44;5109105;28;20458;-73
2022/05/31 04:48:38;;;;;;;5.27;4.07;;;;;;;-143.84;44.66;44940.53;5109244;28;20437;-73
2022/05/31 04:51:05;;;;;;;12.20;4.10;;;;;;;-143.84;44.76;44950.06;5109408;28;20573;-73
2022/05/31 04:53:33;;;;;;;5.40;4.00;;;;;;;-143.84;45.17;44923.41;5109154;28;20446;-72
2022/05/31 04:56:03;;;;;;;5.60;4.07;;;;;;;-143.84;44.95;44932.91;5108805;28;20944;-72
2022/05/31 04:58:30;;;;;;;8.63;4.70;;;;;;;-143.84;44.61;44934.81;5108424;28;20902;-72
2022/05/31 05:00:57;;;;;;;4.70;3.90;;;;;;;-143.84;44.32;44927.19;5109317;28;20488;-72
2022/05/31 05:03:25;;;;;;;5.10;4.10;;;;;;;-143.84;44.38;44936.72;5109045;28;20450;-73
2022/05/31 05:05:52;;;;;;;4.30;3.33;;;;;;;-143.84;44.11;44925.31;5108665;28;21176;-73
2022/05/31 05:08:19;;;;;;;6.40;3.40;;;;;;;-143.84;44.16;44946.25;5109979;28;20840;-74
2022/05/31 05:10:47;;;;;;;3.80;3.50;;;;;;;-143.84;44.16;44931.00;5109418;28;20470;-74
2022/05/31 05:13:15;;;;;;;6.37;3.40;;;;;;;-143.84;43.49;44919.59;5114011;28;20856;-74
2022/05/31 05:15:43;;;;;;;5.13;3.53;;;;;;;-143.84;43.61;44911.97;5114227;28;20447;-74
2022/05/31 05:18:10;;;;;;;5.30;3.90;;;;;;;-143.84;43.44;44906.25;5114249;28;20507;-75
2022/05/31 05:20:39;;;;;;;3.83;3.37;;;;;;;-143.84;43.46;44934.81;5113782;28;20437;-74
2022/05/31 05:23:07;;;;;;;6.70;3.47;;;;;;;-143.84;42.54;44936.72;5113849;28;20455;-74
2022/05/31 05:25:36;;;;;;;4.57;3.57;;;;;;;-143.84;43.23;44925.31;5114034;28;20419;-74
2022/05/31 05:30:38;;;;;;;4.03;3.73;;;;;;;-143.84;42.58;44931.00;5113704;28;20435;-74
2022/05/31 05:30:52;;;;;;;4.83;3.00;;;;;;;-143.84;42.65;44911.97;5113318;28;20573;-74
2022/05/31 05:33:19;;;;;;;3.90;3.50;;;;;;;-143.84;42.18;44900.53;5113564;28;20504;-74
2022/05/31 05:35:46;;;;;;;5.23;3.40;;;;;;;-143.84;42.74;44913.88;5113231;28;20497;-74
2022/05/31 05:38:14;;;;;;;9.30;4.03;;;;;;;-143.84;42.11;44906.25;5113864;28;21168;-74
2022/05/31 05:40:41;;;;;;;5.17;3.50;;;;;;;-143.84;42.45;44881.50;5113681;28;20549;-74
2022/05/31 05:43:10;;;;;;;6.13;3.87;;;;;;;-143.84;41.14;44910.06;5113432;28;20431;-74
2022/05/31 05:45:37;;;;;;;4.57;3.30;;;;;;;-143.84;40.94;44894.84;5113913;28;20477;-74
2022/05/31 05:48:07;;;;;;;6.53;3.70;;;;;;;-143.84;41.08;44887.22;5114846;28;20446;-75
2022/05/31 05:50:36;;;;;;;3.50;2.83;;;;;;;-143.84;41.34;44883.41;5114177;28;21035;-75
2022/05/31 05:53:05;;;;;;;4.07;3.03;;;;;;;-143.84;40.74;44892.94;5114051;28;20435;-74
2022/05/31 05:55:33;;;;;;;4.77;3.40;;;;;;;-143.84;39.92;44887.22;5113441;28;20439;-75
2022/05/31 05:58:01;;;;;;;3.60;3.30;;;;;;;-143.84;40.13;44904.34;5113248;28;20822;-74
2022/05/31 06:00:28;;;;;;;3.77;3.10;;;;;;;-143.84;40.60;44866.28;5112994;28;20439;-74
2022/05/31 06:03:02;;;;;;;6.00;2.70;;;;;;;-143.84;39.75;44868.19;5112600;28;20443;-74
2022/05/31 06:05:31;;;;;;;3.93;3.20;;;;;;;-143.84;39.05;44864.38;5112716;28;20443;-74
2022/05/31 06:08:03;;;;;;;5.30;2.80;;;;;;;-143.84;39.09;44919.59;5112746;28;20446;-74
2022/05/31 06:10:35;;;;;;;3.60;3.30;;;;;;;-143.84;38.22;44892.94;5111817;28;21049;-74
2022/05/31 06:13:08;;;;;;;7.43;3.10;;;;;;;-143.84;38.50;44887.22;5112185;28;20443;-74
2022/05/31 06:15:39;;;;;;;4.53;3.10;;;;;;;-143.84;39.04;44860.56;5112241;28;20458;-74
2022/05/31 06:18:11;;;;;;;6.47;2.70;;;;;;;-143.84;38.40;44883.41;5112422;28;20443;-74
2022/05/31 06:20:40;;;;;;;3.80;3.50;;;;;;;-143.84;37.96;44866.28;5112455;28;20449;-74
2022/05/31 06:23:07;;;;;;;5.40;2.63;;;;;;;-143.84;38.04;44862.47;5110774;28;21066;-74
2022/05/31 06:25:35;;;;;;;4.43;2.83;;;;;;;-143.84;38.98;44870.09;5112336;28;20435;-74
2022/05/31 06:28:02;;;;;;;3.97;3.27;;;;;;;-143.84;38.49;44879.59;5111790;28;20442;-74
2022/05/31 06:30:29;;;;;;;4.40;3.60;;;;;;;-143.84;38.42;44856.75;5112513;28;20478;-74
2022/05/31 06:32:56;;;;;;;3.37;3.10;;;;;;;-143.84;38.75;44832.00;5112458;28;20954;-74
2022/05/31 06:35:23;;;;;;;6.80;3.33;;;;;;;-143.84;39.12;44885.31;5112299;28;20490;-74
2022/05/31 06:37:52;;;;;;;5.40;3.70;;;;;;;-143.84;38.90;44858.66;5112101;28;20481;-74
2022/05/31 06:40:19;;;;;;;3.30;2.97;;;;;;;-143.84;38.35;44843.44;5112305;28;20438;-74
2022/05/31 06:42:46;;;;;;;4.60;2.70;;;;;;;-143.84;38.16;44826.28;5112132;28;20920;-74
2022/05/31 06:45:14;;;;;;;5.67;2.63;;;;;;;-143.84;37.81;44837.72;5112075;28;20435;-74
2022/05/31 06:47:41;;;;;;;2.73;2.53;;;;;;;-143.84;37.21;44805.34;5111732;28;20450;-74
2022/05/31 06:50:09;;;;;;;3.37;2.70;;;;;;;-143.84;37.08;44807.25;5111148;28;20555;-74
2022/05/31 06:58:07;;;;;;;6.57;3.47;;;;;;;-143.84;36.79;44809.16;5112632;28;20442;-78
2022/05/31 07:00:35;;;;;;;7.53;5.10;;;;;;;-143.84;37.26;44820.56;5112319;28;20423;-78
2022/05/31 07:03:02;;;;;;;11.87;4.13;;;;;;;-143.84;36.88;44828.19;5112500;28;20504;-78
2022/05/31 07:05:30;;;;;;;3.07;2.87;;;;;;;-143.84;36.52;44854.84;5112682;28;20495;-77
2022/05/31 07:07:57;;;;;;;4.97;3.23;;;;;;;-143.84;36.41;44799.63;5113112;28;20423;-78
2022/05/31 07:10:26;;;;;;;7.57;3.20;;;;;;;-143.84;35.63;44797.72;5112989;28;20515;-78
2022/05/31 07:12:53;;;;;;;3.97;3.03;;;;;;;-143.84;35.05;44795.81;5112702;28;20446;-78
2022/05/31 07:15:21;;;;;;;4.93;3.90;;;;;;;-143.84;35.96;44790.13;5112833;28;20435;-78
2022/05/31 07:17:48;;;;;;;7.57;3.40;;;;;;;-143.84;35.11;44837.72;5112487;28;20442;-78
2022/05/31 07:20:15;;;;;;;8.13;3.60;;;;;;;-143.84;35.71;44826.28;5112214;28;20438;-78
2022/05/31 07:22:42;;;;;;;5.37;3.20;;;;;;;-143.84;35.02;44807.25;5112595;28;20508;-78
2022/05/31 07:25:10;;;;;;;5.57;3.37;;;;;;;-143.84;35.73;44839.63;5112682;28;20443;-78
2022/05/31 07:27:39;;;;;;;3.87;3.10;;;;;;;-143.84;36.33;44805.34;5112750;28;20428;-78
2022/05/31 07:30:08;;;;;;;7.40;3.60;;;;;;;-143.84;36.31;44849.13;5112218;28;20524;-78
2022/05/31 07:32:35;;;;;;;3.97;3.60;;;;;;;-143.84;36.01;44833.91;5112314;28;21334;-78
2022/05/31 07:35:03;;;;;;;8.47;3.63;;;;;;;-143.84;35.49;44847.22;5111606;28;20539;-78
2022/05/31 07:37:31;;;;;;;6.13;3.90;;;;;;;-143.84;36.16;44833.91;5112289;28;20439;-74
2022/05/31 07:39:58;;;;;;;3.67;3.37;;;;;;;-143.84;36.52;44833.91;5111261;28;20596;-74
2022/05/31 07:42:25;;;;;;;5.03;2.90;;;;;;;-143.84;35.99;44849.13;5111156;28;20459;-73
2022/05/31 07:44:58;;;;;;;5.27;3.03;;;;;;;-143.84;36.47;44835.81;5111076;28;20431;-74
2022/05/31 07:47:26;;;;;;;9.57;3.57;;;;;;;-143.84;36.51;44812.97;5110938;28;20979;-74
2022/05/31 07:49:53;;;;;;;3.93;3.53;;;;;;;-143.84;36.07;44824.38;5110965;28;20439;-74
2022/05/31 07:52:20;;;;;;;6.30;2.83;;;;;;;-143.84;35.67;44809.16;5111013;28;20501;-73
2022/05/31 07:54:48;;;;;;;3.17;2.90;;;;;;;-143.84;34.71;44832.00;5110831;28;20427;-74
2022/05/31 07:59:57;;;;;;;3.03;2.80;;;;;;;-143.84;34.74;44786.31;5109698;28;20412;-74
2022/05/31 08:02:24;;;;;;;5.70;3.53;;;;;;;-143.84;35.13;44807.25;5110521;28;20443;-74
2022/05/31 08:04:52;;;;;;;4.47;2.80;;;;;;;-143.84;33.97;44786.31;5110844;28;20435;-74
2022/05/31 08:07:19;;;;;;;7.50;2.80;;;;;;;-143.84;33.77;44799.63;5110405;28;20447;-74
2022/05/31 08:09:46;;;;;;;5.13;2.93;;;;;;;-143.84;34.12;44771.06;5110651;28;20435;-74
2022/05/31 08:12:14;;;;;;;7.30;2.70;;;;;;;-143.84;34.53;44782.50;5110506;28;20482;-74
2022/05/31 08:14:41;;;;;;;4.17;3.20;;;;;;;-143.84;34.88;44818.66;5111032;28;20443;-74
2022/05/31 08:17:11;;;;;;;10.30;3.43;;;;;;;-143.84;34.69;44803.44;5110696;28;20439;-74
2022/05/31 08:19:38;;;;;;;5.43;3.13;;;;;;;-143.84;33.94;44790.13;5111166;28;20534;-74
2022/05/31 08:22:06;;;;;;;8.40;3.00;;;;;;;-143.84;34.57;44803.44;5105558;28;20537;-74
2022/05/31 08:24:34;;;;;;;3.80;3.33;;;;;;;-143.84;34.22;44757.75;5089517;28;20917;-74
2022/05/31 08:27:02;;;;;;;3.87;3.40;;;;;;;-143.84;33.97;44769.16;5090131;28;20432;-74
2022/05/31 08:29:30;;;;;;;3.80;3.00;;;;;;;-143.84;33.73;44767.25;5090150;28;20432;-74
2022/05/31 08:31:58;;;;;;;5.50;3.00;;;;;;;-143.84;33.13;44793.91;5089814;28;20827;-74
2022/05/31 08:34:29;;;;;;;4.93;2.40;;;;;;;-143.84;33.69;44782.50;5089698;28;20879;-75
2022/05/31 08:36:56;;;;;;;3.13;2.83;;;;;;;-143.84;34.36;44759.66;5090206;28;20455;-74
2022/05/31 08:39:23;;;;;;;10.87;3.70;;;;;;;-143.84;33.73;44782.50;5090488;28;20489;-74
2022/05/31 08:41:53;;;;;;;3.60;3.00;;;;;;;-143.84;33.83;44778.69;5090452;28;20439;-74
2022/05/31 08:44:36;;;;;;;3.23;2.73;;;;;;;-143.84;34.24;44765.34;5091190;28;20435;-74
2022/05/31 08:47:15;;;;;;;3.30;3.07;;;;;;;-143.84;33.15;44769.16;5090374;28;20440;-74
2022/05/31 08:53:03;;;;;;;4.63;2.80;;;;;;;-143.84;33.15;44753.94;5090262;28;20532;-75
2022/05/31 08:58:23;;;;;;;6.13;2.77;;;;;;;-143.84;33.48;44772.97;5090052;28;20411;-74
2022/05/31 09:00:54;;;;;;;4.30;2.93;;;;;;;-143.84;32.87;44746.31;5089726;28;20459;-74
2022/05/31 09:03:27;;;;;;;2.93;2.70;;;;;;;-143.84;32.75;44752.03;5089972;28;20873;-74
2022/05/31 09:06:00;;;;;;;5.23;3.23;;;;;;;-143.84;33.31;44746.31;5089770;28;20486;-74
2022/05/31 09:08:35;;;;;;;2.97;2.60;;;;;;;-143.84;33.43;44740.59;5089500;28;20505;-74
2022/05/31 09:11:05;;;;;;;4.50;3.20;;;;;;;-143.84;33.48;44740.59;5089883;28;21268;-74
2022/05/31 09:13:39;;;;;;;11.00;3.23;;;;;;;-143.84;32.40;44740.59;5089789;28;20509;-74
2022/05/31 09:16:13;;;;;;;3.10;2.80;;;;;;;-143.84;32.75;44753.94;5089737;28;20491;-74
2022/05/31 09:18:46;;;;;;;4.00;3.13;;;;;;;-143.84;32.55;44792.00;5089874;28;20446;-74
2022/05/31 09:21:24;;;;;;;5.00;2.80;;;;;;;-143.84;33.30;44759.66;5089768;28;20448;-74
2022/05/31 09:23:51;;;;;;;2.80;2.60;;;;;;;-143.84;34.05;44767.25;5089884;28;20451;-73
2022/05/31 09:26:41;;;;;;;3.10;2.80;;;;;;;-143.84;33.69;44755.84;5081298;28;20431;-73
2022/05/31 09:29:14;;;;;;;9.83;3.40;;;;;;;-143.84;33.59;44784.41;5089451;28;20471;-73
2022/05/31 09:31:49;;;;;;;4.50;4.10;;;;;;;-143.84;34.22;44786.31;5088259;28;21323;-74
2022/05/31 09:34:46;;;;;;;3.97;3.70;;;;;;;-143.84;34.31;44755.84;5088629;28;20469;-73
2022/05/31 09:37:25;;;;;;;6.90;3.93;;;;;;;-143.84;34.98;44784.41;5088400;28;20447;-74
2022/05/31 09:40:08;;;;;;;9.40;3.70;;;;;;;-143.84;33.15;44774.88;5088483;28;20440;-74
2022/05/31 09:42:41;;;;;;;5.40;3.40;;;;;;;-143.84;34.63;44812.97;5088257;28;20550;-74
2022/05/31 09:45:17;;;;;;;10.23;3.80;;;;;;;-143.84;34.79;44809.16;5088348;28;20440;-74
2022/05/31 09:47:44;;;;;;;8.13;4.23;;;;;;;-143.84;34.96;44795.81;5088303;28;20447;-74
2022/05/31 09:50:12;;;;;;;6.50;4.00;;;;;;;-143.84;35.41;44809.16;5088424;28;20496;-74
2022/05/31 09:52:45;;;;;;;6.50;4.43;;;;;;;-143.84;36.16;44875.78;5088142;28;20491;-73
2022/05/31 09:58:07;;;;;;;4.50;4.00;;;;;;;-143.84;38.12;44870.09;5088631;28;20427;-74
2022/05/31 10:00:35;;;;;;;12.23;4.70;;;;;;;-143.84;38.36;44873.88;5091945;28;20519;-74
2022/05/31 10:03:11;;;;;;;4.23;3.83;;;;;;;-143.84;39.17;44891.03;5091752;28;20497;-74
2022/05/31 10:05:40;;;;;;;5.80;4.50;;;;;;;-143.84;39.47;44883.41;5091905;28;20497;-74
2022/05/31 10:08:16;;;;;;;7.40;3.90;;;;;;;-143.84;39.71;44908.16;5091918;28;20447;-74
2022/05/31 10:10:48;;;;;;;7.63;4.60;;;;;;;-143.84;41.47;44915.78;5091682;28;21050;-74
2022/05/31 10:13:35;;;;;;;5.67;4.87;;;;;;;-143.84;41.42;44906.25;5091232;28;20446;-74
2022/05/31 10:16:17;;;;;;;8.00;4.63;;;;;;;-143.84;42.10;44908.16;5091309;28;20436;-74
2022/05/31 10:18:53;;;;;;;5.30;4.50;;;;;;;-143.84;41.88;44885.31;5090939;28;20444;-74
2022/05/31 10:21:30;;;;;;;9.50;4.70;;;;;;;-143.84;41.91;44898.66;5090819;28;20451;-74
2022/05/31 10:24:06;;;;;;;4.40;3.80;;;;;;;-143.84;42.17;44915.78;5091429;28;20925;-74
2022/05/31 10:26:38;;;;;;;6.70;4.10;;;;;;;-143.84;43.05;44896.75;5091464;28;20858;-74
2022/05/31 10:29:12;;;;;;;10.13;4.57;;;;;;;-143.84;43.65;44891.03;5091333;28;20439;-74
2022/05/31 10:31:41;;;;;;;5.50;4.30;;;;;;;-143.84;43.29;44883.41;5090572;28;20471;-74
2022/05/31 10:34:27;;;;;;;5.00;4.40;;;;;;;-143.84;43.06;44891.03;5090429;28;20483;-74
2022/05/31 10:36:58;;;;;;;9.63;4.50;;;;;;;-143.84;42.07;44902.44;5090845;28;20513;-74
2022/05/31 10:39:29;;;;;;;7.87;4.40;;;;;;;-143.84;41.63;44894.84;5090754;28;20444;-74
2022/05/31 10:41:59;;;;;;;8.33;4.67;;;;;;;-143.84;42.33;44910.06;5091186;28;20452;-74
2022/05/31 10:44:31;;;;;;;4.77;4.30;;;;;;;-143.84;43.56;44866.28;5091037;28;20443;-74
2022/05/31 10:47:04;;;;;;;4.83;4.00;;;;;;;-143.84;42.19;44904.34;5091307;28;20471;-74
2022/05/31 10:49:33;;;;;;;4.07;3.67;;;;;;;-143.84;41.52;44906.25;5090969;28;20509;-74
2022/05/31 10:52:08;;;;;;;4.77;4.00;;;;;;;-143.84;41.78;44889.13;5090754;28;20575;-74
2022/05/31 10:54:53;;;;;;;6.13;3.87;;;;;;;-143.84;41.54;44934.81;5090769;28;20435;-74
2022/05/31 10:57:33;;;;;;;4.80;3.87;;;;;;;-143.84;40.88;44911.97;5091089;28;20803;-74
2022/05/31 11:00:08;;;;;;;10.07;4.83;;;;;;;-143.84;42.36;44892.94;5090690;28;20447;-74
2022/05/31 11:03:02;;;;;;;14.53;3.73;;;;;;;-143.84;43.28;44913.88;5090595;28;20435;-74
2022/05/31 11:05:38;;;;;;;6.60;3.87;;;;;;;-143.84;44.29;44925.31;5090892;28;20452;-74
2022/05/31 11:11:32;;;;;;;5.00;4.50;;;;;;;-143.84;44.97;44921.50;5090379;28;20493;-74
2022/05/31 11:14:15;;;;;;;16.37;5.60;;;;;;;-143.84;47.08;44908.16;5090712;28;20770;-74
2022/05/31 11:16:52;;;;;;;10.67;5.20;;;;;;;-143.84;46.24;44929.09;5090788;28;20516;-74
2022/05/31 11:19:33;;;;;;;5.60;4.33;;;;;;;-143.84;46.44;44965.28;5090626;28;20508;-74
2022/05/31 11:22:16;;;;;;;6.13;4.70;;;;;;;-143.84;47.34;44940.53;5090388;28;20458;-74
2022/05/31 11:25:07;;;;;;;9.10;4.40;;;;;;;-143.84;48.04;44936.72;5090388;28;20445;-74
2022/05/31 11:27:46;;;;;;;7.63;4.90;;;;;;;-143.84;49.39;44911.97;5090274;28;20440;-74
2022/05/31 11:30:22;;;;;;;9.10;4.87;;;;;;;-143.84;50.66;44953.88;5090264;28;20443;-74
2022/05/31 11:33:16;;;;;;;9.10;5.57;;;;;;;-143.84;55.38;44919.59;5090071;28;20483;-74
2022/05/31 11:35:56;;;;;;;7.93;6.67;;;;;;;-143.84;59.00;44911.97;5102215;28;20487;-74
2022/05/31 11:38:32;;;;;;;9.03;6.73;;;;;;;-143.84;59.57;44919.59;5110723;28;20537;-74
2022/05/31 11:41:06;;;;;;;7.07;6.07;;;;;;;-143.84;57.08;44931.00;5110438;28;20469;-74
2022/05/31 11:44:23;;;;;;;11.70;6.00;;;;;;;-143.84;55.54;44942.44;5110362;28;20499;-74
2022/05/31 11:47:00;;;;;;;7.03;5.90;;;;;;;-143.84;55.91;44913.88;5110087;28;20447;-74
2022/05/31 11:49:35;;;;;;;7.27;5.97;;;;;;;-143.84;54.38;44908.16;5110260;28;20439;-74
2022/05/31 11:52:19;;;;;;;10.63;5.10;;;;;;;-143.84;50.51;44921.50;5110620;28;21471;-73
2022/05/31 11:58:04;;;;;;;7.77;5.20;;;;;;;-143.84;50.05;44951.97;5110376;28;20416;-74
2022/05/31 12:00:41;;;;;;;10.17;4.50;;;;;;;-143.84;49.88;44923.41;5109739;28;20984;-74
2022/05/31 12:03:15;;;;;;;6.03;4.80;;;;;;;-143.84;49.68;44934.81;5109237;28;20438;-74